createdAt,value
2016-09-14T00:00:26.221Z,0
2016-09-14T00:01:26.381Z,0
2016-09-14T00:02:26.176Z,0
2016-09-14T00:03:26.081Z,0
2016-09-14T00:04:25.432Z,0
2016-09-14T00:05:25.383Z,0
2016-09-14T00:06:25.688Z,0
2016-09-14T00:07:25.612Z,0
2016-09-14T00:08:25.577Z,0
2016-09-14T00:09:25.832Z,0
2016-09-14T00:10:25.465Z,0
2016-09-14T00:11:25.438Z,0
2016-09-14T00:12:25.402Z,0
2016-09-14T00:13:25.351Z,0
2016-09-14T00:14:25.613Z,0
2016-09-14T00:15:25.582Z,0
2016-09-14T00:16:25.423Z,0
2016-09-14T00:17:25.499Z,0
2016-09-14T00:18:25.460Z,0
2016-09-14T00:19:25.623Z,0
2016-09-14T00:20:25.271Z,0
2016-09-14T00:21:25.027Z,0
2016-09-14T00:22:25.489Z,0
2016-09-14T00:23:25.457Z,0
2016-09-14T00:24:25.386Z,0
2016-09-14T00:25:24.953Z,0
2016-09-14T00:26:24.814Z,0
2016-09-14T00:27:25.075Z,0
2016-09-14T00:28:24.724Z,0
2016-09-14T00:29:24.682Z,0
2016-09-14T00:30:24.358Z,0
2016-09-14T00:31:24.884Z,0
2016-09-14T00:32:24.616Z,0
2016-09-14T00:33:24.724Z,0
2016-09-14T00:34:24.757Z,0
2016-09-14T00:35:24.399Z,0
2016-09-14T00:36:24.354Z,0
2016-09-14T00:37:24.330Z,0
2016-09-14T00:38:24.297Z,0
2016-09-14T00:39:24.558Z,0
2016-09-14T00:40:24.532Z,0
2016-09-14T00:41:24.525Z,0
2016-09-14T00:42:24.467Z,0
2016-09-14T00:43:24.425Z,0
2016-09-14T00:44:24.421Z,0
2016-09-14T00:45:24.380Z,0
2016-09-14T00:46:24.447Z,0
2016-09-14T00:47:23.898Z,0
2016-09-14T00:48:23.941Z,0
2016-09-14T00:49:24.122Z,0
2016-09-14T00:50:24.338Z,0
2016-09-14T00:51:23.931Z,0
2016-09-14T00:52:23.699Z,0
2016-09-14T00:53:23.849Z,0
2016-09-14T00:54:23.905Z,0
2016-09-14T00:55:23.458Z,0
2016-09-14T00:56:23.543Z,0
2016-09-14T00:57:23.481Z,0
2016-09-14T00:58:23.736Z,0
2016-09-14T00:59:23.702Z,0
2016-09-14T01:00:23.645Z,0
2016-09-14T01:01:23.521Z,0
2016-09-14T01:02:23.571Z,0
2016-09-14T01:03:23.521Z,0
2016-09-14T01:04:23.520Z,0
2016-09-14T01:05:23.503Z,0
2016-09-14T01:06:23.391Z,0
2016-09-14T01:07:23.057Z,0
2016-09-14T01:08:23.392Z,0
2016-09-14T01:09:22.969Z,0
2016-09-14T01:10:22.609Z,0
2016-09-14T01:11:22.938Z,0
2016-09-14T01:12:22.527Z,0
2016-09-14T01:13:23.097Z,0
2016-09-14T01:14:22.739Z,0
2016-09-14T01:15:23.012Z,0
2016-09-14T01:16:22.675Z,0
2016-09-14T01:17:22.941Z,0
2016-09-14T01:18:22.873Z,0
2016-09-14T01:19:22.843Z,0
2016-09-14T01:20:22.988Z,0
2016-09-14T01:21:22.739Z,0
2016-09-14T01:22:22.400Z,0
2016-09-14T01:23:22.664Z,0
2016-09-14T01:24:22.838Z,0
2016-09-14T01:25:22.790Z,0
2016-09-14T01:26:22.537Z,0
2016-09-14T01:27:22.879Z,0
2016-09-14T01:28:22.648Z,0
2016-09-14T01:29:22.410Z,0
2016-09-14T01:30:22.145Z,0
2016-09-14T01:31:22.010Z,0
2016-09-14T01:32:22.494Z,0
2016-09-14T01:33:22.216Z,0
2016-09-14T01:34:22.184Z,0
2016-09-14T01:35:22.134Z,0
2016-09-14T01:36:22.110Z,0
2016-09-14T01:37:22.069Z,0
2016-09-14T01:38:21.904Z,0
2016-09-14T01:39:21.999Z,0
2016-09-14T01:40:21.669Z,0
2016-09-14T01:41:21.847Z,0
2016-09-14T01:42:21.546Z,0
2016-09-14T01:43:21.499Z,0
2016-09-14T01:44:21.771Z,0
2016-09-14T01:45:21.944Z,0
2016-09-14T01:46:21.878Z,0
2016-09-14T01:47:21.348Z,0
2016-09-14T01:48:21.776Z,0
2016-09-14T01:49:21.548Z,0
2016-09-14T01:50:21.907Z,0
2016-09-14T01:51:21.144Z,0
2016-09-14T01:52:21.614Z,0
2016-09-14T01:53:21.968Z,0
2016-09-14T01:54:21.010Z,0
2016-09-14T01:55:21.280Z,0
2016-09-14T01:56:21.152Z,0
2016-09-14T01:57:21.652Z,0
2016-09-14T01:58:20.860Z,0
2016-09-14T01:59:20.835Z,0
2016-09-14T02:00:20.749Z,0
2016-09-14T02:01:21.038Z,0
2016-09-14T02:02:20.697Z,0
2016-09-14T02:03:21.352Z,0
2016-09-14T02:04:21.105Z,0
2016-09-14T02:05:21.104Z,0
2016-09-14T02:06:20.822Z,0
2016-09-14T02:07:21.866Z,0
2016-09-14T02:08:20.704Z,0
2016-09-14T02:09:20.677Z,0
2016-09-14T02:10:20.356Z,0
2016-09-14T02:11:20.602Z,0
2016-09-14T02:12:20.649Z,0
2016-09-14T02:13:20.292Z,0
2016-09-14T02:14:20.447Z,0
2016-09-14T02:15:20.297Z,0
2016-09-14T02:16:20.374Z,0
2016-09-14T02:17:20.235Z,0
2016-09-14T02:18:20.179Z,0
2016-09-14T02:19:19.918Z,0
2016-09-14T02:20:20.116Z,0
2016-09-14T02:21:20.162Z,0
2016-09-14T02:22:20.314Z,0
2016-09-14T02:23:19.776Z,0
2016-09-14T02:24:19.710Z,0
2016-09-14T02:25:19.986Z,0
2016-09-14T02:26:19.328Z,0
2016-09-14T02:27:20.000Z,0
2016-09-14T02:28:19.572Z,0
2016-09-14T02:29:19.408Z,0
2016-09-14T02:30:19.764Z,0
2016-09-14T02:31:19.625Z,0
2016-09-14T02:32:19.429Z,0
2016-09-14T02:33:19.628Z,0
2016-09-14T02:34:20.389Z,0
2016-09-14T02:35:19.598Z,0
2016-09-14T02:36:19.529Z,0
2016-09-14T02:37:19.784Z,0
2016-09-14T02:38:19.311Z,0
2016-09-14T02:39:19.176Z,0
2016-09-14T02:40:19.413Z,0
2016-09-14T02:41:19.200Z,0
2016-09-14T02:42:19.255Z,0
2016-09-14T02:43:19.409Z,0
2016-09-14T02:44:19.201Z,0
2016-09-14T02:45:18.808Z,0
2016-09-14T02:46:19.192Z,0
2016-09-14T02:47:19.029Z,0
2016-09-14T02:48:19.211Z,0
2016-09-14T02:49:18.652Z,0
2016-09-14T02:50:18.895Z,0
2016-09-14T02:51:18.555Z,0
2016-09-14T02:52:18.199Z,0
2016-09-14T02:53:18.774Z,0
2016-09-14T02:54:18.097Z,0
2016-09-14T02:55:18.565Z,0
2016-09-14T02:56:18.028Z,0
2016-09-14T02:57:18.605Z,0
2016-09-14T02:58:18.568Z,0
2016-09-14T02:59:18.510Z,0
2016-09-14T03:00:18.138Z,0
2016-09-14T03:01:18.430Z,0
2016-09-14T03:02:18.363Z,0
2016-09-14T03:03:18.331Z,0
2016-09-14T03:04:18.291Z,0
2016-09-14T03:05:18.721Z,0
2016-09-14T03:06:17.908Z,0
2016-09-14T03:07:18.369Z,0
2016-09-14T03:08:18.000Z,0
2016-09-14T03:09:17.469Z,0
2016-09-14T03:10:18.020Z,0
2016-09-14T03:11:17.871Z,0
2016-09-14T03:12:17.939Z,0
2016-09-14T03:13:17.841Z,0
2016-09-14T03:14:17.853Z,0
2016-09-14T03:15:17.807Z,0
2016-09-14T03:16:17.785Z,0
2016-09-14T03:17:17.911Z,0
2016-09-14T03:18:17.270Z,0
2016-09-14T03:19:18.842Z,0
2016-09-14T03:20:17.799Z,0
2016-09-14T03:21:17.762Z,0
2016-09-14T03:22:17.186Z,0
2016-09-14T03:23:17.656Z,0
2016-09-14T03:24:17.136Z,0
2016-09-14T03:25:17.392Z,0
2016-09-14T03:26:17.405Z,0
2016-09-14T03:27:17.018Z,0
2016-09-14T03:28:16.975Z,0
2016-09-14T03:29:16.613Z,0
2016-09-14T03:30:17.164Z,0
2016-09-14T03:31:17.038Z,0
2016-09-14T03:32:16.777Z,0
2016-09-14T03:33:17.026Z,0
2016-09-14T03:34:17.016Z,0
2016-09-14T03:35:16.952Z,0
2016-09-14T03:36:16.601Z,0
2016-09-14T03:37:16.612Z,0
2016-09-14T03:38:16.858Z,0
2016-09-14T03:39:16.452Z,0
2016-09-14T03:40:16.417Z,0
2016-09-14T03:41:16.378Z,0
2016-09-14T03:42:16.665Z,0
2016-09-14T03:43:16.271Z,0
2016-09-14T03:44:16.611Z,0
2016-09-14T03:45:16.574Z,0
2016-09-14T03:46:16.159Z,0
2016-09-14T03:47:16.135Z,0
2016-09-14T03:48:16.085Z,0
2016-09-14T03:49:16.525Z,0
2016-09-14T03:50:15.972Z,0
2016-09-14T03:51:16.461Z,0
2016-09-14T03:52:16.195Z,0
2016-09-14T03:53:15.837Z,0
2016-09-14T03:54:15.813Z,0
2016-09-14T03:55:15.762Z,0
2016-09-14T03:56:16.011Z,0
2016-09-14T03:57:15.978Z,0
2016-09-14T03:58:15.941Z,0
2016-09-14T03:59:15.920Z,0
2016-09-14T04:00:15.225Z,0
2016-09-14T04:01:15.815Z,0
2016-09-14T04:02:15.776Z,0
2016-09-14T04:03:15.745Z,0
2016-09-14T04:04:15.376Z,0
2016-09-14T04:05:15.339Z,0
2016-09-14T04:06:15.288Z,0
2016-09-14T04:07:15.555Z,0
2016-09-14T04:08:15.776Z,0
2016-09-14T04:09:15.467Z,0
2016-09-14T04:10:14.794Z,0
2016-09-14T04:11:15.064Z,0
2016-09-14T04:12:15.332Z,0
2016-09-14T04:13:14.973Z,0
2016-09-14T04:14:15.248Z,0
2016-09-14T04:15:15.409Z,0
2016-09-14T04:16:15.221Z,0
2016-09-14T04:17:14.797Z,0
2016-09-14T04:18:14.799Z,0
2016-09-14T04:19:14.730Z,0
2016-09-14T04:20:14.370Z,0
2016-09-14T04:21:14.856Z,0
2016-09-14T04:22:15.096Z,0
2016-09-14T04:23:14.859Z,0
2016-09-14T04:24:14.816Z,0
2016-09-14T04:25:14.766Z,0
2016-09-14T04:26:14.460Z,0
2016-09-14T04:27:14.436Z,0
2016-09-14T04:28:14.629Z,0
2016-09-14T04:29:14.601Z,0
2016-09-14T04:30:14.745Z,0
2016-09-14T04:31:13.894Z,0
2016-09-14T04:32:14.445Z,0
2016-09-14T04:33:14.419Z,0
2016-09-14T04:34:14.062Z,0
2016-09-14T04:35:14.021Z,0
2016-09-14T04:36:13.972Z,0
2016-09-14T04:37:13.931Z,0
2016-09-14T04:38:14.197Z,0
2016-09-14T04:39:14.063Z,0
2016-09-14T04:40:13.801Z,0
2016-09-14T04:41:14.237Z,0
2016-09-14T04:42:13.404Z,4
2016-09-14T04:43:13.974Z,4
2016-09-14T04:44:13.928Z,0
2016-09-14T04:45:13.972Z,0
2016-09-14T04:46:13.734Z,4
2016-09-14T04:47:13.696Z,4
2016-09-14T04:48:13.766Z,4
2016-09-14T04:49:13.404Z,4
2016-09-14T04:50:13.051Z,4
2016-09-14T04:51:13.326Z,8
2016-09-14T04:52:13.269Z,8
2016-09-14T04:53:13.529Z,8
2016-09-14T04:54:13.580Z,12
2016-09-14T04:55:13.447Z,12
2016-09-14T04:56:13.431Z,12
2016-09-14T04:57:13.374Z,16
2016-09-14T04:58:13.010Z,16
2016-09-14T04:59:12.987Z,20
2016-09-14T05:00:13.116Z,24
2016-09-14T05:01:13.184Z,28
2016-09-14T05:02:12.548Z,28
2016-09-14T05:03:13.311Z,32
2016-09-14T05:04:13.065Z,36
2016-09-14T05:05:12.410Z,36
2016-09-14T05:06:13.037Z,40
2016-09-14T05:07:12.995Z,48
2016-09-14T05:08:12.575Z,48
2016-09-14T05:09:12.828Z,52
2016-09-14T05:10:13.003Z,60
2016-09-14T05:11:12.756Z,64
2016-09-14T05:12:12.922Z,68
2016-09-14T05:13:12.915Z,76
2016-09-14T05:14:12.608Z,80
2016-09-14T05:15:12.551Z,88
2016-09-14T05:16:12.653Z,92
2016-09-14T05:17:12.054Z,100
2016-09-14T05:18:12.329Z,104
2016-09-14T05:19:12.095Z,112
2016-09-14T05:20:12.052Z,116
2016-09-14T05:21:11.703Z,124
2016-09-14T05:22:12.254Z,132
2016-09-14T05:23:12.247Z,140
2016-09-14T05:24:12.166Z,144
2016-09-14T05:25:12.347Z,152
2016-09-14T05:26:12.011Z,160
2016-09-14T05:27:12.366Z,168
2016-09-14T05:28:12.021Z,176
2016-09-14T05:29:12.171Z,180
2016-09-14T05:30:11.818Z,188
2016-09-14T05:31:11.881Z,196
2016-09-14T05:32:11.821Z,208
2016-09-14T05:33:12.047Z,212
2016-09-14T05:34:11.431Z,220
2016-09-14T05:35:11.915Z,232
2016-09-14T05:36:12.080Z,240
2016-09-14T05:37:11.006Z,244
2016-09-14T05:38:11.502Z,256
2016-09-14T05:39:11.415Z,264
2016-09-14T05:40:12.303Z,272
2016-09-14T05:41:11.441Z,292
2016-09-14T05:42:11.640Z,300
2016-09-14T05:43:11.478Z,308
2016-09-14T05:44:11.313Z,312
2016-09-14T05:45:11.175Z,324
2016-09-14T05:46:11.331Z,332
2016-09-14T05:47:11.593Z,340
2016-09-14T05:48:11.325Z,352
2016-09-14T05:49:11.499Z,360
2016-09-14T05:50:11.052Z,372
2016-09-14T05:51:11.232Z,376
2016-09-14T05:52:11.188Z,384
2016-09-14T05:53:10.912Z,396
2016-09-14T05:54:11.502Z,400
2016-09-14T05:55:11.485Z,412
2016-09-14T05:56:10.489Z,420
2016-09-14T05:57:10.447Z,428
2016-09-14T05:58:10.078Z,440
2016-09-14T05:59:10.669Z,444
2016-09-14T06:00:10.615Z,452
2016-09-14T06:01:10.567Z,460
2016-09-14T06:02:10.423Z,472
2016-09-14T06:03:10.080Z,480
2016-09-14T06:04:09.822Z,488
2016-09-14T06:05:10.095Z,496
2016-09-14T06:06:10.365Z,504
2016-09-14T06:07:10.782Z,516
2016-09-14T06:08:10.165Z,520
2016-09-14T06:09:10.217Z,532
2016-09-14T06:10:10.183Z,540
2016-09-14T06:11:09.832Z,548
2016-09-14T06:12:10.332Z,560
2016-09-14T06:13:09.459Z,572
2016-09-14T06:14:10.056Z,580
2016-09-14T06:15:09.984Z,592
2016-09-14T06:16:10.120Z,600
2016-09-14T06:17:09.567Z,608
2016-09-14T06:18:10.053Z,616
2016-09-14T06:19:09.480Z,628
2016-09-14T06:20:09.958Z,636
2016-09-14T06:21:09.136Z,648
2016-09-14T06:22:09.860Z,656
2016-09-14T06:23:09.625Z,668
2016-09-14T06:24:09.256Z,680
2016-09-14T06:25:09.751Z,692
2016-09-14T06:26:09.483Z,696
2016-09-14T06:27:09.169Z,708
2016-09-14T06:28:09.443Z,716
2016-09-14T06:29:09.092Z,728
2016-09-14T06:30:09.369Z,740
2016-09-14T06:31:09.304Z,756
2016-09-14T06:32:09.697Z,768
2016-09-14T06:33:09.140Z,784
2016-09-14T06:34:09.402Z,804
2016-09-14T06:35:08.975Z,816
2016-09-14T06:36:08.799Z,832
2016-09-14T06:37:09.043Z,852
2016-09-14T06:38:08.658Z,868
2016-09-14T06:39:08.961Z,892
2016-09-14T06:40:08.913Z,912
2016-09-14T06:41:08.843Z,932
2016-09-14T06:42:09.006Z,948
2016-09-14T06:43:08.446Z,960
2016-09-14T06:44:08.406Z,972
2016-09-14T06:45:09.439Z,984
2016-09-14T06:46:08.511Z,956
2016-09-14T06:47:08.270Z,972
2016-09-14T06:48:08.264Z,976
2016-09-14T06:49:08.484Z,1008
2016-09-14T06:50:08.470Z,1064
2016-09-14T06:51:08.424Z,1100
2016-09-14T06:52:08.269Z,1116
2016-09-14T06:53:08.572Z,1136
2016-09-14T06:54:08.369Z,1152
2016-09-14T06:55:08.484Z,1176
2016-09-14T06:56:08.222Z,1196
2016-09-14T06:57:07.870Z,1216
2016-09-14T06:58:08.094Z,1232
2016-09-14T06:59:07.484Z,1252
2016-09-14T07:00:07.448Z,1272
2016-09-14T07:01:07.878Z,1288
2016-09-14T07:02:07.474Z,1296
2016-09-14T07:03:08.188Z,1320
2016-09-14T07:04:07.366Z,1340
2016-09-14T07:05:08.014Z,1364
2016-09-14T07:06:08.156Z,1384
2016-09-14T07:07:07.867Z,1408
2016-09-14T07:08:07.614Z,1432
2016-09-14T07:09:07.982Z,1464
2016-09-14T07:10:07.795Z,1484
2016-09-14T07:11:07.935Z,1512
2016-09-14T07:12:07.226Z,1536
2016-09-14T07:13:07.864Z,1560
2016-09-14T07:14:07.501Z,1588
2016-09-14T07:15:07.963Z,1616
2016-09-14T07:16:07.779Z,1644
2016-09-14T07:17:07.870Z,1676
2016-09-14T07:18:07.283Z,1704
2016-09-14T07:19:07.542Z,1736
2016-09-14T07:20:07.786Z,1768
2016-09-14T07:21:07.822Z,1796
2016-09-14T07:22:07.362Z,1832
2016-09-14T07:23:07.553Z,1860
2016-09-14T07:24:07.385Z,1888
2016-09-14T07:25:06.875Z,1924
2016-09-14T07:26:08.102Z,1960
2016-09-14T07:27:06.427Z,1988
2016-09-14T07:28:07.064Z,2028
2016-09-14T07:29:07.152Z,2056
2016-09-14T07:30:06.981Z,2088
2016-09-14T07:31:06.974Z,2116
2016-09-14T07:32:06.713Z,2148
2016-09-14T07:33:06.991Z,2172
2016-09-14T07:34:06.871Z,2200
2016-09-14T07:35:06.819Z,2228
2016-09-14T07:36:06.490Z,2252
2016-09-14T07:37:06.451Z,2284
2016-09-14T07:38:06.846Z,2316
2016-09-14T07:39:06.589Z,2348
2016-09-14T07:40:06.643Z,2384
2016-09-14T07:41:06.772Z,2420
2016-09-14T07:42:06.327Z,2448
2016-09-14T07:43:06.398Z,2484
2016-09-14T07:44:06.154Z,2524
2016-09-14T07:45:05.912Z,2552
2016-09-14T07:46:06.439Z,2584
2016-09-14T07:47:05.915Z,2616
2016-09-14T07:48:05.821Z,2644
2016-09-14T07:49:06.227Z,2676
2016-09-14T07:50:06.057Z,2708
2016-09-14T07:51:06.328Z,2744
2016-09-14T07:52:06.325Z,2780
2016-09-14T07:53:05.957Z,2812
2016-09-14T07:54:05.804Z,2844
2016-09-14T07:55:06.005Z,2892
2016-09-14T07:56:05.956Z,2932
2016-09-14T07:57:05.812Z,2960
2016-09-14T07:58:05.925Z,3000
2016-09-14T07:59:05.767Z,3036
2016-09-14T08:00:05.856Z,3072
2016-09-14T08:01:05.815Z,3108
2016-09-14T08:02:05.836Z,3140
2016-09-14T08:03:05.297Z,3180
2016-09-14T08:04:05.254Z,3220
2016-09-14T08:05:05.227Z,3256
2016-09-14T08:06:06.086Z,3292
2016-09-14T08:07:05.361Z,3328
2016-09-14T08:08:05.331Z,3332
2016-09-14T08:09:04.637Z,3340
2016-09-14T08:10:04.678Z,3364
2016-09-14T08:11:04.887Z,3388
2016-09-14T08:12:05.350Z,3412
2016-09-14T08:13:04.657Z,3436
2016-09-14T08:14:05.023Z,3472
2016-09-14T08:15:04.717Z,3744
2016-09-14T08:16:04.672Z,3728
2016-09-14T08:17:04.863Z,3744
2016-09-14T08:18:04.349Z,3760
2016-09-14T08:19:04.805Z,3764
2016-09-14T08:20:04.872Z,3784
2016-09-14T08:21:04.395Z,3800
2016-09-14T08:22:04.694Z,3812
2016-09-14T08:23:04.542Z,3828
2016-09-14T08:24:04.748Z,3848
2016-09-14T08:25:04.633Z,3844
2016-09-14T08:26:04.507Z,3856
2016-09-14T08:27:04.160Z,3856
2016-09-14T08:28:04.117Z,3880
2016-09-14T08:29:04.066Z,3888
2016-09-14T08:30:04.353Z,3880
2016-09-14T08:31:04.442Z,3884
2016-09-14T08:32:04.229Z,4092
2016-09-14T08:33:04.211Z,4104
2016-09-14T08:34:04.566Z,4104
2016-09-14T08:35:03.971Z,4140
2016-09-14T08:36:03.850Z,3920
2016-09-14T08:37:03.367Z,3920
2016-09-14T08:38:03.878Z,3932
2016-09-14T08:39:03.627Z,3940
2016-09-14T08:40:03.806Z,3960
2016-09-14T08:41:03.589Z,3900
2016-09-14T08:42:03.860Z,3920
2016-09-14T08:43:03.633Z,3920
2016-09-14T08:44:03.775Z,3928
2016-09-14T08:45:03.611Z,3932
2016-09-14T08:46:03.993Z,3924
2016-09-14T08:47:03.841Z,3928
2016-09-14T08:48:03.240Z,3932
2016-09-14T08:49:03.220Z,3920
2016-09-14T08:50:03.534Z,3936
2016-09-14T08:51:03.637Z,3912
2016-09-14T08:52:03.642Z,3944
2016-09-14T08:53:03.117Z,3992
2016-09-14T08:54:03.215Z,3992
2016-09-14T08:55:05.143Z,4000
2016-09-14T08:56:03.863Z,4000
2016-09-14T08:57:02.967Z,4008
2016-09-14T08:58:02.926Z,3988
2016-09-14T08:59:02.630Z,4000
2016-09-14T09:00:04.833Z,4008
2016-09-14T09:01:03.460Z,4008
2016-09-14T09:02:03.444Z,4012
2016-09-14T09:03:03.158Z,4020
2016-09-14T09:04:02.643Z,4016
2016-09-14T09:05:02.254Z,4016
2016-09-14T09:06:02.831Z,4032
2016-09-14T09:07:02.716Z,4028
2016-09-14T09:08:03.040Z,4044
2016-09-14T09:09:02.890Z,4032
2016-09-14T09:10:02.411Z,4048
2016-09-14T09:11:02.521Z,3856
2016-09-14T09:12:02.260Z,3832
2016-09-14T09:13:01.891Z,3836
2016-09-14T09:14:02.516Z,3840
2016-09-14T09:15:02.494Z,3832
2016-09-14T09:16:02.426Z,3836
2016-09-14T09:17:02.132Z,3820
2016-09-14T09:18:02.336Z,3824
2016-09-14T09:19:02.367Z,3696
2016-09-14T09:20:02.292Z,3748
2016-09-14T09:21:01.487Z,3744
2016-09-14T09:22:02.206Z,3736
2016-09-14T09:23:02.147Z,3740
2016-09-14T09:24:01.807Z,3728
2016-09-14T09:25:01.785Z,3636
2016-09-14T09:26:01.361Z,3708
2016-09-14T09:27:01.385Z,3724
2016-09-14T09:28:01.886Z,3700
2016-09-14T09:29:01.230Z,3696
2016-09-14T09:30:01.550Z,3676
2016-09-14T09:31:01.211Z,3672
2016-09-14T09:32:01.425Z,3676
2016-09-14T09:33:01.401Z,3672
2016-09-14T09:34:01.326Z,3672
2016-09-14T09:35:01.326Z,3664
2016-09-14T09:36:01.266Z,3652
2016-09-14T09:37:01.552Z,3648
2016-09-14T09:38:01.238Z,3632
2016-09-14T09:39:01.452Z,3624
2016-09-14T09:40:01.522Z,3620
2016-09-14T09:41:01.566Z,3608
2016-09-14T09:42:01.629Z,3772
2016-09-14T09:43:01.405Z,3888
2016-09-14T09:44:01.040Z,3908
2016-09-14T09:45:01.685Z,3896
2016-09-14T09:46:01.174Z,3872
2016-09-14T09:47:00.795Z,3836
2016-09-14T09:48:00.765Z,3920
2016-09-14T09:49:01.243Z,3916
2016-09-14T09:50:01.017Z,3908
2016-09-14T09:51:00.357Z,3912
2016-09-14T09:52:00.487Z,3904
2016-09-14T09:53:00.836Z,3900
2016-09-14T09:54:00.929Z,3888
2016-09-14T09:55:00.819Z,3876
2016-09-14T09:56:00.880Z,3880
2016-09-14T09:57:00.763Z,3864
2016-09-14T09:58:00.436Z,3856
2016-09-14T09:59:00.356Z,3852
2016-09-14T10:00:00.328Z,3856
2016-09-14T10:01:00.691Z,3848
2016-09-14T10:02:00.695Z,3840
2016-09-14T10:03:00.695Z,3824
2016-09-14T10:04:00.520Z,3820
2016-09-14T10:04:59.835Z,3808
2016-09-14T10:06:00.161Z,3796
2016-09-14T10:07:00.115Z,3784
2016-09-14T10:08:00.333Z,3768
2016-09-14T10:09:00.332Z,3756
2016-09-14T10:09:59.593Z,3748
2016-09-14T10:11:00.199Z,3736
2016-09-14T10:11:59.611Z,3716
2016-09-14T10:13:00.123Z,3704
2016-09-14T10:13:59.767Z,3680
2016-09-14T10:14:59.720Z,3660
2016-09-14T10:15:59.975Z,3652
2016-09-14T10:16:59.728Z,3628
2016-09-14T10:17:59.578Z,3608
2016-09-14T10:18:59.526Z,3592
2016-09-14T10:19:59.824Z,3576
2016-09-14T10:21:00.171Z,3568
2016-09-14T10:22:00.159Z,3584
2016-09-14T10:22:59.469Z,3560
2016-09-14T10:23:59.320Z,3544
2016-09-14T10:24:59.601Z,3532
2016-09-14T10:25:59.576Z,3520
2016-09-14T10:26:59.487Z,3496
2016-09-14T10:27:59.235Z,3480
2016-09-14T10:28:59.129Z,3464
2016-09-14T10:29:59.113Z,3444
2016-09-14T10:30:59.344Z,3420
2016-09-14T10:31:59.373Z,3404
2016-09-14T10:32:58.938Z,3388
2016-09-14T10:33:59.563Z,3376
2016-09-14T10:34:59.214Z,3364
2016-09-14T10:35:58.671Z,3352
2016-09-14T10:36:58.820Z,3340
2016-09-14T10:37:58.774Z,3340
2016-09-14T10:38:59.051Z,3344
2016-09-14T10:39:58.692Z,3352
2016-09-14T10:40:58.956Z,3352
2016-09-14T10:41:58.924Z,3344
2016-09-14T10:42:58.879Z,3340
2016-09-14T10:43:58.905Z,3344
2016-09-14T10:44:58.930Z,3352
2016-09-14T10:45:58.853Z,3356
2016-09-14T10:46:58.798Z,3352
2016-09-14T10:47:58.698Z,3356
2016-09-14T10:48:58.934Z,3340
2016-09-14T10:49:58.799Z,3344
2016-09-14T10:50:58.923Z,3356
2016-09-14T10:51:58.267Z,3368
2016-09-14T10:52:58.285Z,3376
2016-09-14T10:53:58.160Z,3388
2016-09-14T10:54:58.376Z,3408
2016-09-14T10:55:58.503Z,3412
2016-09-14T10:56:58.169Z,3416
2016-09-14T10:57:57.388Z,3428
2016-09-14T10:58:57.933Z,3440
2016-09-14T10:59:58.433Z,3456
2016-09-14T11:00:57.976Z,3484
2016-09-14T11:01:58.171Z,3512
2016-09-14T11:02:57.779Z,3536
2016-09-14T11:03:58.042Z,3544
2016-09-14T11:04:58.007Z,3552
2016-09-14T11:05:58.174Z,3556
2016-09-14T11:06:57.944Z,3568
2016-09-14T11:07:57.592Z,3572
2016-09-14T11:08:57.963Z,3580
2016-09-14T11:09:57.400Z,3588
2016-09-14T11:10:57.466Z,3596
2016-09-14T11:11:57.929Z,3600
2016-09-14T11:12:57.727Z,3608
2016-09-14T11:13:57.805Z,3616
2016-09-14T11:14:57.528Z,3620
2016-09-14T11:15:57.077Z,3616
2016-09-14T11:16:57.263Z,3620
2016-09-14T11:17:57.634Z,3616
2016-09-14T11:18:57.499Z,3632
2016-09-14T11:19:57.572Z,3536
2016-09-14T11:20:57.395Z,3616
2016-09-14T11:21:57.358Z,3548
2016-09-14T11:22:57.023Z,3548
2016-09-14T11:23:57.252Z,3580
2016-09-14T11:24:56.904Z,3604
2016-09-14T11:25:56.809Z,3612
2016-09-14T11:26:57.293Z,3620
2016-09-14T11:27:57.138Z,3640
2016-09-14T11:28:57.197Z,3612
2016-09-14T11:29:57.077Z,3648
2016-09-14T11:30:57.150Z,3644
2016-09-14T11:31:56.643Z,3632
2016-09-14T11:32:56.621Z,3524
2016-09-14T11:33:56.959Z,3648
2016-09-14T11:34:56.530Z,3640
2016-09-14T11:35:57.007Z,3668
2016-09-14T11:36:56.779Z,3632
2016-09-14T11:37:56.967Z,3660
2016-09-14T11:38:56.691Z,3704
2016-09-14T11:39:56.781Z,3640
2016-09-14T11:40:56.293Z,3652
2016-09-14T11:41:55.961Z,3652
2016-09-14T11:42:55.891Z,3652
2016-09-14T11:43:56.294Z,3680
2016-09-14T11:44:56.638Z,3648
2016-09-14T11:45:56.157Z,3672
2016-09-14T11:46:56.078Z,3704
2016-09-14T11:47:56.676Z,3720
2016-09-14T11:48:56.285Z,3712
2016-09-14T11:49:56.274Z,3716
2016-09-14T11:50:56.233Z,3576
2016-09-14T11:51:56.181Z,3752
2016-09-14T11:52:55.850Z,3724
2016-09-14T11:53:56.166Z,3748
2016-09-14T11:54:56.064Z,3700
2016-09-14T11:55:56.013Z,3788
2016-09-14T11:56:56.024Z,3748
2016-09-14T11:57:56.211Z,3656
2016-09-14T11:58:55.599Z,3880
2016-09-14T11:59:55.797Z,3604
2016-09-14T12:00:55.886Z,3636
2016-09-14T12:01:55.966Z,3640
2016-09-14T12:02:55.856Z,3644
2016-09-14T12:03:55.396Z,3608
2016-09-14T12:04:55.366Z,3616
2016-09-14T12:05:55.653Z,3612
2016-09-14T12:06:55.470Z,3624
2016-09-14T12:07:55.610Z,3688
2016-09-14T12:08:55.544Z,3688
2016-09-14T12:09:55.230Z,3688
2016-09-14T12:10:55.150Z,3712
2016-09-14T12:11:55.394Z,3740
2016-09-14T12:12:55.919Z,3748
2016-09-14T12:13:54.717Z,3744
2016-09-14T12:14:55.319Z,3744
2016-09-14T12:15:55.246Z,3680
2016-09-14T12:16:55.493Z,3676
2016-09-14T12:17:55.357Z,3716
2016-09-14T12:18:55.156Z,3692
2016-09-14T12:19:54.794Z,3668
2016-09-14T12:20:55.055Z,3644
2016-09-14T12:21:54.989Z,3652
2016-09-14T12:22:54.992Z,3604
2016-09-14T12:23:54.619Z,3660
2016-09-14T12:24:54.933Z,3680
2016-09-14T12:25:54.713Z,3736
2016-09-14T12:26:54.947Z,3708
2016-09-14T12:27:54.394Z,3692
2016-09-14T12:28:54.480Z,3692
2016-09-14T12:29:54.404Z,3684
2016-09-14T12:30:54.913Z,3704
2016-09-14T12:31:54.378Z,3708
2016-09-14T12:32:54.785Z,3720
2016-09-14T12:33:53.912Z,3708
2016-09-14T12:34:54.756Z,3684
2016-09-14T12:35:54.544Z,3728
2016-09-14T12:36:55.044Z,3740
2016-09-14T12:37:54.605Z,3768
2016-09-14T12:38:54.636Z,3772
2016-09-14T12:39:54.000Z,3776
2016-09-14T12:40:54.345Z,3800
2016-09-14T12:41:54.249Z,3780
2016-09-14T12:42:54.254Z,3772
2016-09-14T12:43:54.734Z,3796
2016-09-14T12:44:54.392Z,3792
2016-09-14T12:45:54.148Z,3796
2016-09-14T12:46:54.375Z,3752
2016-09-14T12:47:53.939Z,3748
2016-09-14T12:48:54.266Z,3756
2016-09-14T12:49:53.660Z,3780
2016-09-14T12:50:53.599Z,3780
2016-09-14T12:51:53.521Z,3780
2016-09-14T12:52:53.505Z,3800
2016-09-14T12:53:53.885Z,3792
2016-09-14T12:54:53.746Z,3796
2016-09-14T12:55:53.793Z,3612
2016-09-14T12:56:53.817Z,3768
2016-09-14T12:57:53.685Z,3760
2016-09-14T12:58:53.861Z,3760
2016-09-14T12:59:53.716Z,3768
2016-09-14T13:00:53.744Z,3748
2016-09-14T13:01:53.987Z,3820
2016-09-14T13:02:52.826Z,3792
2016-09-14T13:03:53.825Z,3784
2016-09-14T13:04:53.238Z,3808
2016-09-14T13:05:53.231Z,3840
2016-09-14T13:06:53.398Z,3780
2016-09-14T13:07:53.630Z,3780
2016-09-14T13:08:52.933Z,3736
2016-09-14T13:09:54.434Z,3752
2016-09-14T13:10:52.506Z,3740
2016-09-14T13:11:52.847Z,3736
2016-09-14T13:12:52.858Z,3736
2016-09-14T13:13:54.118Z,3736
2016-09-14T13:14:52.525Z,3752
2016-09-14T13:15:52.694Z,3800
2016-09-14T13:16:52.646Z,3792
2016-09-14T13:17:52.860Z,3756
2016-09-14T13:18:53.115Z,3768
2016-09-14T13:19:52.880Z,3816
2016-09-14T13:20:52.656Z,3844
2016-09-14T13:21:52.577Z,3880
2016-09-14T13:22:52.529Z,3852
2016-09-14T13:23:52.875Z,3888
2016-09-14T13:24:52.468Z,3864
2016-09-14T13:25:52.670Z,3908
2016-09-14T13:26:52.668Z,3900
2016-09-14T13:27:52.975Z,3852
2016-09-14T13:28:52.409Z,3808
2016-09-14T13:29:52.514Z,3780
2016-09-14T13:30:52.559Z,3780
2016-09-14T13:31:52.541Z,3788
2016-09-14T13:32:52.656Z,3728
2016-09-14T13:33:52.296Z,3808
2016-09-14T13:34:52.390Z,3836
2016-09-14T13:35:52.403Z,3856
2016-09-14T13:36:52.191Z,3860
2016-09-14T13:37:52.502Z,3852
2016-09-14T13:38:52.125Z,3828
2016-09-14T13:39:52.477Z,3876
2016-09-14T13:40:51.685Z,3876
2016-09-14T13:41:51.519Z,3880
2016-09-14T13:42:52.348Z,3892
2016-09-14T13:43:52.239Z,3896
2016-09-14T13:44:51.692Z,3896
2016-09-14T13:45:51.894Z,3848
2016-09-14T13:46:51.852Z,3860
2016-09-14T13:47:51.793Z,3856
2016-09-14T13:48:51.664Z,3840
2016-09-14T13:49:51.885Z,3856
2016-09-14T13:50:52.153Z,3888
2016-09-14T13:51:51.297Z,3852